Time;durP1;ratioP1;P1;durP2;ratioP2;P2;SDS_P1;SDS_P2;PMS_P1;PMS_P2;Temp;Humidity;BMP_temperature;BMP_pressure;BME280_temperature;BME280_humidity;BME280_pressure;Samples;Min_cycle;Max_cycle;Signal;HPM_P1;HPM_P2
2020/12/24 00:02:11;;;;;;;5.57;4.18;;;11.40;94.20;;;;;;4982035;28;20030;-70
2020/12/24 00:04:36;;;;;;;5.97;3.75;;;11.40;94.30;;;;;;4981597;28;20030;-71
2020/12/24 00:07:02;;;;;;;5.50;3.90;;;11.40;94.20;;;;;;4981473;28;20096;-69
2020/12/24 00:09:28;;;;;;;5.28;4.05;;;11.50;94.10;;;;;;4981529;28;20057;-70
2020/12/24 00:11:55;;;;;;;6.57;3.47;;;11.50;94.00;;;;;;4981891;28;20566;-70
2020/12/24 00:14:21;;;;;;;4.18;3.20;;;11.40;93.80;;;;;;4981928;28;20379;-70
2020/12/24 00:16:47;;;;;;;3.58;2.70;;;11.40;93.70;;;;;;4981339;28;20038;-69
2020/12/24 00:19:13;;;;;;;3.83;2.55;;;11.30;94.00;;;;;;4981749;28;20034;-70
2020/12/24 00:21:39;;;;;;;4.03;2.63;;;11.20;94.10;;;;;;4981731;28;20052;-69
2020/12/24 00:24:05;;;;;;;3.17;2.00;;;11.20;94.10;;;;;;4981164;28;20041;-69
2020/12/24 00:26:31;;;;;;;3.53;1.85;;;11.10;94.10;;;;;;4981342;28;20038;-69
2020/12/24 00:28:57;;;;;;;5.22;1.90;;;11.10;94.10;;;;;;4980374;28;20093;-69
2020/12/24 00:31:22;;;;;;;4.05;1.65;;;11.10;94.30;;;;;;4981909;28;20042;-69
2020/12/24 00:33:48;;;;;;;2.30;1.75;;;11.00;94.50;;;;;;4981973;28;20034;-71
2020/12/24 00:36:14;;;;;;;1.67;1.58;;;11.10;94.50;;;;;;4981683;28;20061;-69
2020/12/24 00:38:40;;;;;;;3.15;1.77;;;11.10;94.40;;;;;;4981316;28;20037;-70
2020/12/24 00:41:07;;;;;;;2.15;1.92;;;11.10;94.20;;;;;;4981675;28;20034;-70
2020/12/24 00:43:33;;;;;;;1.55;1.20;;;11.00;94.30;;;;;;4981492;28;20042;-70
2020/12/24 00:45:59;;;;;;;4.07;1.80;;;10.90;94.50;;;;;;4980602;28;20638;-67
2020/12/24 00:48:24;;;;;;;1.75;1.50;;;10.90;94.40;;;;;;4980745;28;20034;-70
2020/12/24 00:50:50;;;;;;;1.85;1.58;;;10.80;94.40;;;;;;4980820;28;20054;-69
2020/12/24 00:53:16;;;;;;;4.63;1.48;;;10.80;94.60;;;;;;4980779;28;20026;-70
2020/12/24 00:55:42;;;;;;;1.70;1.35;;;10.80;94.60;;;;;;4962634;28;20030;-70
2020/12/24 00:58:08;;;;;;;3.70;1.58;;;10.90;94.50;;;;;;4979713;28;20042;-69
2020/12/24 01:00:35;;;;;;;1.27;1.17;;;11.00;94.30;;;;;;4979593;28;20065;-69
2020/12/24 01:03:01;;;;;;;1.40;1.08;;;11.00;94.20;;;;;;4981717;28;20182;-69
2020/12/24 01:05:26;;;;;;;1.65;1.55;;;11.00;94.20;;;;;;4980386;28;20113;-69
2020/12/24 01:07:52;;;;;;;1.60;1.23;;;11.10;94.20;;;;;;4981046;28;20486;-69
2020/12/24 01:10:18;;;;;;;1.70;1.45;;;11.10;94.10;;;;;;4980761;28;20137;-69
2020/12/24 01:12:43;;;;;;;4.07;1.58;;;11.10;94.00;;;;;;4980756;28;20031;-69
2020/12/24 01:15:11;;;;;;;1.83;1.48;;;11.20;94.10;;;;;;4979732;28;20039;-69
2020/12/24 01:17:37;;;;;;;1.58;1.40;;;11.10;93.90;;;;;;4980793;28;20039;-69
2020/12/24 01:20:07;;;;;;;2.40;1.40;;;11.10;93.80;;;;;;4980768;28;20035;-68
2020/12/24 01:22:33;;;;;;;1.58;1.30;;;11.00;93.80;;;;;;4979286;28;20483;-69
2020/12/24 01:25:00;;;;;;;2.88;1.17;;;11.00;93.80;;;;;;4980244;28;20034;-70
2020/12/24 01:27:26;;;;;;;1.65;1.33;;;11.00;93.80;;;;;;4978711;28;20116;-69
2020/12/24 01:29:51;;;;;;;1.20;1.10;;;10.90;93.80;;;;;;4974040;28;20637;-70
2020/12/24 01:32:18;;;;;;;1.75;1.42;;;10.80;94.00;;;;;;4979906;28;20042;-69
2020/12/24 01:34:44;;;;;;;5.43;1.90;;;10.80;96.40;;;;;;4979967;28;20038;-68
2020/12/24 01:37:10;;;;;;;3.10;1.42;;;11.20;96.60;;;;;;4979714;28;20030;-69
2020/12/24 01:39:35;;;;;;;2.58;1.83;;;11.70;93.50;;;;;;4980683;28;20041;-69
2020/12/24 01:42:01;;;;;;;2.38;1.63;;;11.90;92.00;;;;;;4980726;28;20038;-69
2020/12/24 01:44:27;;;;;;;1.17;0.65;;;12.20;91.10;;;;;;4980637;28;20081;-67
2020/12/24 01:46:53;;;;;;;5.03;1.17;;;12.30;90.80;;;;;;4984455;28;20065;-71
2020/12/24 01:49:20;;;;;;;2.25;1.38;;;12.20;90.20;;;;;;4977432;28;20085;-71
2020/12/24 01:51:56;;;;;;;2.85;1.10;;;12.10;91.00;;;;;;4981495;28;20700;-71
2020/12/24 01:54:23;;;;;;;;;;;12.20;90.80;;;;;;4981399;28;20038;-72
2020/12/24 01:56:49;;;;;;;2.35;1.02;;;12.10;91.40;;;;;;4979903;28;20376;-70
2020/12/24 01:59:16;;;;;;;1.40;1.10;;;12.10;91.80;;;;;;4980088;28;20026;-69
2020/12/24 02:01:50;;;;;;;2.47;1.10;;;12.00;90.70;;;;;;4979887;28;20097;-69
2020/12/24 02:04:16;;;;;;;1.88;1.17;;;12.00;91.80;;;;;;4980011;28;20153;-69
2020/12/24 02:06:44;;;;;;;2.03;1.60;;;12.20;90.40;;;;;;4977174;28;20762;-69
2020/12/24 02:09:10;;;;;;;2.95;0.98;;;12.30;90.70;;;;;;4979425;28;20038;-72
2020/12/24 02:11:38;;;;;;;0.90;0.75;;;12.30;89.40;;;;;;4979786;28;20038;-70
2020/12/24 02:14:04;;;;;;;0.70;0.65;;;12.20;88.00;;;;;;4976896;28;20081;-67
2020/12/24 02:16:32;;;;;;;0.93;0.93;;;12.00;88.90;;;;;;4978066;28;20566;-70
2020/12/24 02:18:58;;;;;;;0.90;0.80;;;11.70;90.00;;;;;;4977636;28;20851;-70
2020/12/24 02:21:24;;;;;;;1.45;1.10;;;11.40;90.10;;;;;;4978872;28;20042;-69
2020/12/24 02:23:49;;;;;;;1.02;0.95;;;11.20;90.70;;;;;;4978239;28;20184;-69
2020/12/24 02:26:15;;;;;;;4.30;1.52;;;11.00;91.00;;;;;;4978243;28;20129;-69
2020/12/24 02:28:41;;;;;;;1.80;1.60;;;10.90;91.70;;;;;;4978808;28;20034;-69
2020/12/24 02:31:09;;;;;;;2.83;1.30;;;10.80;91.80;;;;;;4979839;28;20036;-69
2020/12/24 02:33:35;;;;;;;2.40;1.40;;;10.60;92.00;;;;;;4979882;28;20027;-70
2020/12/24 02:36:00;;;;;;;1.65;1.45;;;10.50;92.60;;;;;;4978514;28;20034;-69
2020/12/24 02:38:26;;;;;;;1.55;1.38;;;10.40;92.80;;;;;;4979655;28;20038;-69
2020/12/24 02:40:52;;;;;;;1.80;1.70;;;10.30;92.80;;;;;;4973657;28;20788;-69
2020/12/24 02:43:17;;;;;;;2.30;1.77;;;10.30;93.00;;;;;;4979311;28;20105;-66
2020/12/24 02:45:43;;;;;;;2.65;2.05;;;10.30;93.40;;;;;;4979133;28;20038;-69
2020/12/24 02:48:09;;;;;;;2.17;1.65;;;10.30;93.50;;;;;;4978659;28;20196;-69
2020/12/24 02:50:34;;;;;;;3.42;1.85;;;10.40;93.80;;;;;;4979271;28;20097;-69
2020/12/24 02:53:00;;;;;;;2.35;1.95;;;10.40;93.90;;;;;;4979246;28;20125;-69
2020/12/24 02:55:26;;;;;;;3.80;2.50;;;10.50;93.90;;;;;;4979161;28;20494;-69
2020/12/24 02:57:51;;;;;;;3.60;2.10;;;10.60;93.90;;;;;;4978674;28;20121;-69
2020/12/24 03:00:17;;;;;;;2.78;2.25;;;10.60;93.80;;;;;;4979191;28;20493;-70
2020/12/24 03:02:43;;;;;;;4.38;2.30;;;10.80;93.80;;;;;;4978509;28;20034;-70
2020/12/24 03:05:08;;;;;;;3.30;2.08;;;10.80;93.80;;;;;;4977278;28;20065;-70
2020/12/24 03:07:35;;;;;;;3.97;2.22;;;10.80;93.50;;;;;;4977876;28;20038;-70
2020/12/24 03:10:01;;;;;;;4.43;2.30;;;10.90;93.50;;;;;;4977923;28;20398;-70
2020/12/24 03:12:27;;;;;;;7.07;2.58;;;10.90;93.60;;;;;;4978424;28;20044;-70
2020/12/24 03:14:53;;;;;;;2.60;2.15;;;10.90;93.60;;;;;;4978661;28;20045;-71
2020/12/24 03:18:16;;;;;;;7.05;2.10;;;10.90;93.20;;;;;;5121460;27;20347;-67
2020/12/24 03:20:42;;;;;;;5.10;2.00;;;10.90;93.40;;;;;;5130980;27;20023;-66
2020/12/24 03:23:08;;;;;;;3.15;1.85;;;10.90;93.80;;;;;;5125691;27;20039;-64
2020/12/24 03:25:33;;;;;;;4.05;2.13;;;10.80;94.20;;;;;;5130675;27;20406;-65
2020/12/24 03:27:59;;;;;;;6.72;2.53;;;10.80;94.30;;;;;;5118511;27;20130;-65
2020/12/24 03:30:24;;;;;;;2.60;1.75;;;10.80;94.30;;;;;;5124697;27;20023;-65
2020/12/24 03:32:50;;;;;;;3.42;1.55;;;10.80;94.20;;;;;;5126390;27;20047;-67
2020/12/24 03:35:16;;;;;;;3.17;1.73;;;10.80;94.20;;;;;;5128347;27;20047;-67
2020/12/24 03:37:41;;;;;;;2.20;1.55;;;10.80;94.40;;;;;;5127429;27;20031;-66
2020/12/24 03:40:07;;;;;;;7.07;1.65;;;10.80;94.50;;;;;;5128185;27;20757;-66
2020/12/24 03:42:34;;;;;;;3.58;1.17;;;10.80;94.50;;;;;;5128479;27;20083;-67
2020/12/24 03:45:00;;;;;;;2.28;1.20;;;10.60;94.70;;;;;;5100165;28;20084;-67
2020/12/24 03:47:25;;;;;;;2.00;1.08;;;10.60;94.60;;;;;;5120469;27;20031;-66
2020/12/24 03:49:51;;;;;;;1.55;1.10;;;10.60;94.50;;;;;;5120934;27;20767;-66
2020/12/24 03:52:17;;;;;;;1.67;1.10;;;10.60;94.20;;;;;;5120882;27;20027;-66
2020/12/24 03:54:43;;;;;;;3.58;1.90;;;10.60;94.40;;;;;;5125597;27;20111;-66
2020/12/24 03:57:08;;;;;;;4.43;1.13;;;10.60;94.50;;;;;;5125720;27;20475;-66
2020/12/24 03:59:35;;;;;;;1.80;1.00;;;10.50;94.50;;;;;;5136979;27;20038;-65
2020/12/24 04:02:01;;;;;;;1.13;0.85;;;10.50;94.40;;;;;;5102746;28;20088;-65
2020/12/24 04:04:27;;;;;;;1.10;0.88;;;10.50;94.60;;;;;;5121304;27;20085;-66
2020/12/24 04:06:52;;;;;;;2.30;0.73;;;10.50;94.40;;;;;;5118785;27;20024;-67
2020/12/24 04:09:18;;;;;;;2.20;1.00;;;10.40;94.60;;;;;;5097819;27;20043;-66
2020/12/24 04:11:43;;;;;;;1.73;0.98;;;10.50;94.20;;;;;;5126531;27;20909;-66
2020/12/24 04:14:09;;;;;;;5.25;1.20;;;10.40;94.10;;;;;;5118667;27;20478;-66
2020/12/24 04:16:35;;;;;;;2.08;0.90;;;10.30;93.90;;;;;;5127858;27;20435;-66
2020/12/24 04:19:00;;;;;;;1.35;1.00;;;10.20;94.00;;;;;;5124605;27;20038;-70
2020/12/24 04:21:26;;;;;;;2.25;1.02;;;10.20;94.20;;;;;;5101886;27;20040;-66
2020/12/24 04:23:52;;;;;;;1.88;0.80;;;10.10;94.10;;;;;;5131939;27;20046;-65
2020/12/24 04:26:22;;;;;;;1.10;0.77;;;10.10;94.10;;;;;;5127008;27;20039;-63
2020/12/24 04:28:48;;;;;;;4.28;0.70;;;10.00;93.70;;;;;;5120570;27;20056;-66
2020/12/24 04:31:15;;;;;;;2.08;0.70;;;9.90;93.90;;;;;;5115399;27;20031;-65
2020/12/24 04:33:41;;;;;;;2.17;0.77;;;9.80;93.90;;;;;;5109884;27;20504;-64
2020/12/24 04:36:07;;;;;;;0.85;0.68;;;9.80;93.50;;;;;;5105270;27;20039;-64
2020/12/24 04:38:33;;;;;;;3.08;0.80;;;9.80;93.40;;;;;;5119399;27;20019;-65
2020/12/24 04:41:00;;;;;;;2.72;0.70;;;9.80;93.50;;;;;;5104993;27;20035;-63
2020/12/24 04:43:27;;;;;;;2.92;0.70;;;9.70;93.50;;;;;;5114927;27;20035;-64
2020/12/24 04:45:54;;;;;;;2.42;0.75;;;9.70;93.80;;;;;;5108086;27;20814;-64
2020/12/24 04:48:20;;;;;;;2.38;0.90;;;9.80;94.10;;;;;;5110985;27;20041;-65
2020/12/24 04:50:49;;;;;;;3.53;0.90;;;9.80;93.70;;;;;;5107426;27;20023;-65
2020/12/24 04:53:15;;;;;;;2.25;0.73;;;10.00;93.60;;;;;;5109659;27;20042;-64
2020/12/24 04:55:42;;;;;;;3.60;1.00;;;10.10;93.40;;;;;;5112627;27;20448;-65
2020/12/24 04:58:09;;;;;;;1.27;0.80;;;10.20;93.00;;;;;;5104173;27;20121;-65
2020/12/24 05:00:39;;;;;;;5.95;1.00;;;10.20;93.00;;;;;;5088905;27;20023;-65
2020/12/24 05:03:10;;;;;;;3.85;0.90;;;10.30;92.80;;;;;;5114207;27;20534;-65
2020/12/24 05:05:37;;;;;;;2.20;0.90;;;10.20;92.90;;;;;;5106279;27;20035;-65
2020/12/24 05:08:05;;;;;;;2.85;0.90;;;10.30;92.60;;;;;;5108226;27;20031;-63
2020/12/24 05:10:32;;;;;;;0.85;0.57;;;10.10;92.90;;;;;;5085720;27;20038;-63
2020/12/24 05:12:58;;;;;;;4.18;1.02;;;10.10;93.00;;;;;;5119085;27;20116;-63
2020/12/24 05:15:28;;;;;;;3.20;0.80;;;10.00;92.70;;;;;;5105695;27;20061;-64
2020/12/24 05:17:54;;;;;;;3.17;1.00;;;10.10;92.80;;;;;;5103973;27;20884;-62
2020/12/24 05:20:20;;;;;;;3.05;1.98;;;10.00;92.90;;;;;;5104582;27;20029;-64
2020/12/24 05:22:46;;;;;;;3.50;1.17;;;10.00;92.40;;;;;;5118952;27;20054;-65
2020/12/24 05:25:19;;;;;;;6.53;2.00;;;10.00;91.80;;;;;;5119173;27;20066;-64
2020/12/24 05:27:57;;;;;;;6.47;1.20;;;10.10;91.90;;;;;;5112469;27;20130;-64
2020/12/24 05:30:27;;;;;;;2.53;0.82;;;10.00;91.30;;;;;;5108007;27;20139;-64
2020/12/24 05:32:53;;;;;;;4.20;0.90;;;10.00;91.10;;;;;;5105354;27;20122;-66
2020/12/24 05:35:25;;;;;;;2.58;0.80;;;10.00;90.70;;;;;;5105154;27;20138;-65
2020/12/24 05:37:52;;;;;;;3.88;0.90;;;9.90;90.50;;;;;;5103820;27;20042;-64
2020/12/24 05:40:21;;;;;;;1.27;0.70;;;9.90;90.80;;;;;;5109075;27;20114;-65
2020/12/24 05:42:55;;;;;;;3.67;1.00;;;9.90;90.40;;;;;;5111230;27;20051;-64
2020/12/24 05:45:23;;;;;;;3.47;1.10;;;9.90;90.90;;;;;;5105199;27;20032;-64
2020/12/24 05:48:13;;;;;;;5.10;1.20;;;9.90;90.40;;;;;;5103522;27;20031;-65
2020/12/24 05:50:41;;;;;;;4.10;0.82;;;9.90;90.50;;;;;;5106636;27;20042;-65
2020/12/24 05:53:07;;;;;;;1.23;0.70;;;9.90;90.60;;;;;;5108254;27;20118;-64
2020/12/24 05:55:38;;;;;;;2.53;0.90;;;9.80;90.50;;;;;;5102680;27;20038;-64
2020/12/24 05:58:04;;;;;;;6.05;1.05;;;9.80;90.60;;;;;;5103244;27;20032;-64
2020/12/24 06:00:40;;;;;;;2.90;0.70;;;9.80;90.80;;;;;;5105992;27;20049;-64
2020/12/24 06:03:17;;;;;;;1.70;0.80;;;9.70;90.70;;;;;;5115302;27;20066;-63
2020/12/24 06:06:00;;;;;;;4.10;0.93;;;9.60;90.80;;;;;;5107829;27;20121;-63
2020/12/24 06:08:28;;;;;;;3.17;0.80;;;9.60;90.70;;;;;;5105278;27;20032;-64
2020/12/24 06:11:09;;;;;;;6.30;1.00;;;9.50;90.80;;;;;;5082958;28;20571;-64
2020/12/24 06:13:38;;;;;;;3.95;0.90;;;9.30;90.90;;;;;;5105304;27;20038;-65
2020/12/24 06:16:11;;;;;;;2.90;0.70;;;9.30;90.70;;;;;;5109750;27;20032;-63
2020/12/24 06:18:39;;;;;;;5.13;1.50;;;9.20;90.60;;;;;;5108707;27;20035;-63
2020/12/24 06:21:18;;;;;;;1.85;0.82;;;9.20;90.70;;;;;;5107854;27;20059;-64
2020/12/24 06:24:06;;;;;;;4.35;0.80;;;9.20;90.40;;;;;;5108445;27;20054;-63
2020/12/24 06:26:37;;;;;;;3.45;0.75;;;9.10;90.30;;;;;;5111393;27;20115;-64
2020/12/24 06:29:03;;;;;;;1.55;0.50;;;9.10;90.10;;;;;;5107759;27;20066;-65
2020/12/24 06:31:32;;;;;;;3.25;0.85;;;9.00;90.10;;;;;;5115671;27;20757;-63
2020/12/24 06:33:57;;;;;;;4.05;1.23;;;8.90;90.30;;;;;;5119984;27;20574;-64
2020/12/24 06:36:29;;;;;;;3.17;1.00;;;8.90;89.70;;;;;;5110906;27;20067;-65
2020/12/24 06:38:54;;;;;;;4.95;1.00;;;8.80;89.30;;;;;;5110423;27;20087;-65
2020/12/24 06:41:34;;;;;;;6.47;0.85;;;8.80;89.30;;;;;;5116766;27;20027;-67
2020/12/24 06:44:00;;;;;;;5.28;1.40;;;8.90;88.90;;;;;;5104529;27;20034;-66
2020/12/24 06:46:26;;;;;;;5.93;0.85;;;9.00;88.20;;;;;;5111806;27;20082;-66
2020/12/24 06:49:03;;;;;;;2.30;0.93;;;9.00;86.90;;;;;;5106375;27;20130;-65
2020/12/24 06:51:49;;;;;;;2.88;0.52;;;9.00;87.90;;;;;;5116796;27;20600;-63
2020/12/24 06:54:19;;;;;;;6.75;1.42;;;9.10;87.00;;;;;;5094556;27;20031;-64
2020/12/24 06:56:44;;;;;;;5.82;1.50;;;9.10;86.10;;;;;;5117183;27;20142;-65
2020/12/24 06:59:18;;;;;;;6.50;1.20;;;8.90;86.00;;;;;;5109614;27;20476;-65
2020/12/24 07:02:03;;;;;;;8.50;1.23;;;8.90;87.00;;;;;;5103683;27;20036;-65
2020/12/24 07:04:39;;;;;;;2.28;0.85;;;8.80;87.10;;;;;;5114387;27;20034;-64
2020/12/24 07:07:05;;;;;;;9.80;1.08;;;8.70;87.60;;;;;;5104999;27;20110;-64
2020/12/24 07:09:31;;;;;;;6.32;1.25;;;8.60;88.10;;;;;;5069708;28;20039;-65
2020/12/24 07:11:58;;;;;;;3.45;1.08;;;8.60;88.20;;;;;;5107792;27;20031;-64
2020/12/24 07:14:24;;;;;;;6.10;1.00;;;8.60;87.50;;;;;;5114826;27;20340;-63
2020/12/24 07:16:52;;;;;;;4.38;0.70;;;8.60;87.60;;;;;;5112884;28;20035;-64
2020/12/24 07:19:18;;;;;;;7.00;2.50;;;8.60;87.40;;;;;;5111157;28;20028;-63
2020/12/24 07:21:50;;;;;;;10.20;4.10;;;8.50;87.50;;;;;;5107027;28;20123;-64
2020/12/24 07:24:24;;;;;;;8.88;2.92;;;8.50;87.80;;;;;;5103832;28;20055;-64
2020/12/24 07:27:00;;;;;;;4.82;0.88;;;8.40;87.70;;;;;;5110032;28;20039;-63
2020/12/24 07:29:28;;;;;;;5.45;1.38;;;8.30;87.70;;;;;;5102932;28;20376;-64
2020/12/24 07:31:56;;;;;;;9.75;1.92;;;8.30;87.50;;;;;;5115083;28;20031;-64
2020/12/24 07:34:30;;;;;;;5.97;1.25;;;8.30;87.80;;;;;;5115411;28;20036;-63
2020/12/24 07:36:56;;;;;;;3.00;0.90;;;8.30;87.20;;;;;;5110881;28;20034;-64
2020/12/24 07:39:22;;;;;;;9.00;2.17;;;8.20;87.80;;;;;;5118083;28;20042;-63
2020/12/24 07:41:48;;;;;;;6.07;1.90;;;8.20;86.80;;;;;;5108958;28;20451;-63
2020/12/24 07:44:17;;;;;;;7.75;2.50;;;8.40;86.90;;;;;;5108454;28;20027;-64
2020/12/24 07:46:48;;;;;;;5.60;1.50;;;8.40;86.30;;;;;;5100767;28;20043;-63
2020/12/24 07:49:14;;;;;;;5.22;1.58;;;8.40;85.80;;;;;;5106309;28;20033;-63
2020/12/24 07:51:41;;;;;;;7.28;1.25;;;8.40;85.90;;;;;;5102738;28;20142;-64
2020/12/24 07:54:17;;;;;;;3.38;1.00;;;8.30;86.60;;;;;;5108070;28;20028;-63
2020/12/24 07:56:46;;;;;;;5.13;0.65;;;8.30;86.50;;;;;;5107035;28;20124;-64
2020/12/24 07:59:16;;;;;;;9.15;2.45;;;8.30;85.80;;;;;;5108813;28;20118;-63
2020/12/24 08:01:41;;;;;;;5.05;1.00;;;8.50;85.50;;;;;;5103003;28;20024;-65
2020/12/24 08:04:07;;;;;;;3.38;0.70;;;8.70;84.40;;;;;;5108609;27;20112;-64
2020/12/24 08:06:33;;;;;;;9.32;1.00;;;9.00;83.10;;;;;;5110506;27;20034;-63
2020/12/24 08:09:12;;;;;;;8.95;1.23;;;9.00;82.60;;;;;;5120912;27;20030;-64
2020/12/24 08:11:39;;;;;;;4.75;1.23;;;9.10;81.50;;;;;;5115951;27;20038;-64
2020/12/24 08:14:05;;;;;;;7.75;1.30;;;9.20;81.60;;;;;;5122041;27;20066;-64
2020/12/24 08:16:35;;;;;;;6.47;0.88;;;9.00;81.10;;;;;;5114296;27;20126;-60
2020/12/24 08:19:41;;;;;;;4.75;0.98;;;9.00;81.40;;;;;;5107349;27;20031;-59
2020/12/24 08:22:52;;;;;;;3.40;0.60;;;9.00;81.80;;;;;;5122416;27;20828;-59
2020/12/24 08:25:18;;;;;;;6.90;1.30;;;8.90;81.90;;;;;;5006820;28;20092;-59
2020/12/24 08:27:47;;;;;;;5.88;0.95;;;8.90;81.90;;;;;;5098763;27;20051;-59
2020/12/24 08:30:14;;;;;;;4.00;0.75;;;8.80;82.00;;;;;;5117447;27;20035;-60
2020/12/24 08:32:40;;;;;;;4.15;0.93;;;8.80;82.30;;;;;;5116598;27;20035;-59
2020/12/24 08:35:13;;;;;;;3.80;0.93;;;8.90;80.70;;;;;;5113954;27;20077;-60
2020/12/24 08:37:39;;;;;;;2.35;0.52;;;9.00;81.20;;;;;;5113348;27;20794;-59
2020/12/24 08:40:24;;;;;;;2.45;0.60;;;8.90;81.40;;;;;;5110238;27;20063;-59
2020/12/24 08:42:57;;;;;;;3.30;0.80;;;9.00;81.60;;;;;;5108249;27;20047;-59
2020/12/24 08:45:23;;;;;;;2.05;0.80;;;9.10;80.30;;;;;;5114342;27;20126;-59
2020/12/24 08:47:48;;;;;;;6.90;0.98;;;9.00;80.20;;;;;;5111594;27;20035;-60
2020/12/24 08:50:14;;;;;;;2.40;0.63;;;9.00;80.20;;;;;;5122071;27;20479;-59
2020/12/24 08:52:43;;;;;;;3.33;0.80;;;9.10;80.20;;;;;;5109775;27;20042;-59
2020/12/24 08:55:09;;;;;;;3.53;0.68;;;9.10;80.20;;;;;;5106756;27;20387;-60
2020/12/24 08:57:36;;;;;;;7.13;1.40;;;9.20;80.00;;;;;;5110184;27;20031;-59
2020/12/24 09:00:12;;;;;;;4.60;0.88;;;9.20;79.40;;;;;;5105949;27;20138;-60
2020/12/24 09:02:37;;;;;;;2.90;0.75;;;9.30;79.60;;;;;;5094849;27;20057;-59
2020/12/24 09:05:05;;;;;;;7.47;1.00;;;9.40;79.90;;;;;;5120711;27;20027;-59
2020/12/24 09:07:36;;;;;;;9.45;1.15;;;9.40;79.50;;;;;;5112461;27;20432;-60
2020/12/24 09:10:07;;;;;;;2.63;0.70;;;9.40;79.60;;;;;;5119334;27;20107;-59
2020/12/24 09:12:35;;;;;;;3.40;0.73;;;9.40;79.80;;;;;;5118767;27;20058;-60
2020/12/24 09:15:03;;;;;;;7.65;3.42;;;9.30;78.60;;;;;;5105871;27;20075;-62
2020/12/24 09:17:29;;;;;;;11.05;2.10;;;9.30;79.60;;;;;;5118817;27;20035;-59
2020/12/24 09:20:22;;;;;;;6.68;1.60;;;9.40;80.00;;;;;;5108412;27;20501;-59
2020/12/24 09:22:53;;;;;;;9.43;4.30;;;9.30;79.20;;;;;;5108463;27;20437;-59
2020/12/24 09:25:27;;;;;;;4.63;1.92;;;9.40;80.00;;;;;;5116533;27;20033;-59
2020/12/24 09:27:53;;;;;;;10.23;2.30;;;9.50;79.40;;;;;;5104269;27;20023;-59
2020/12/24 09:30:19;;;;;;;5.20;1.10;;;9.50;79.20;;;;;;5120295;27;20889;-59
2020/12/24 09:32:52;;;;;;;5.45;1.02;;;9.50;78.90;;;;;;5114500;27;20078;-60
2020/12/24 09:35:18;;;;;;;3.13;0.70;;;9.60;78.50;;;;;;5108431;27;20406;-60
2020/12/24 09:37:43;;;;;;;3.50;0.90;;;9.50;77.70;;;;;;5101060;27;20058;-59
2020/12/24 09:40:09;;;;;;;5.00;1.02;;;9.50;78.70;;;;;;5092072;28;20676;-60
2020/12/24 09:42:35;;;;;;;7.05;1.33;;;9.50;79.20;;;;;;5111282;27;20027;-60
2020/12/24 09:45:00;;;;;;;3.67;1.00;;;9.60;78.70;;;;;;5111163;27;20042;-60
2020/12/24 09:47:26;;;;;;;4.60;1.00;;;9.60;77.30;;;;;;5109513;27;20066;-59
2020/12/24 09:49:52;;;;;;;4.00;1.02;;;9.60;77.40;;;;;;5113595;27;20034;-60
2020/12/24 09:52:17;;;;;;;6.15;1.17;;;9.60;77.70;;;;;;5109288;27;20074;-59
2020/12/24 09:54:43;;;;;;;6.80;2.55;;;9.50;77.30;;;;;;5115090;27;20127;-60
2020/12/24 09:57:08;;;;;;;4.93;1.30;;;9.60;77.90;;;;;;5115195;27;20125;-60
2020/12/24 09:59:34;;;;;;;6.40;1.83;;;9.70;76.10;;;;;;5111371;27;20036;-62
2020/12/24 10:02:00;;;;;;;2.35;0.70;;;9.70;77.20;;;;;;5108209;27;20039;-61
2020/12/24 10:04:25;;;;;;;8.63;1.00;;;9.70;75.20;;;;;;5101353;27;20039;-59
2020/12/24 10:06:51;;;;;;;6.70;1.23;;;9.70;76.70;;;;;;5109388;27;20046;-61
2020/12/24 10:09:17;;;;;;;5.63;1.00;;;9.60;77.00;;;;;;5108351;27;20110;-67
2020/12/24 10:11:47;;;;;;;4.57;1.05;;;9.60;76.30;;;;;;5118883;27;20519;-60
2020/12/24 10:14:13;;;;;;;6.97;1.30;;;9.50;76.70;;;;;;5119563;27;20114;-61
2020/12/24 10:16:39;;;;;;;3.80;1.15;;;9.50;76.10;;;;;;5109314;27;20658;-59
2020/12/24 10:19:04;;;;;;;5.28;1.35;;;9.60;76.70;;;;;;5120370;27;20842;-60
2020/12/24 10:21:30;;;;;;;4.15;0.85;;;9.70;76.30;;;;;;5117329;27;20023;-59
2020/12/24 10:23:56;;;;;;;3.33;1.08;;;9.60;76.50;;;;;;5102912;27;20024;-59
2020/12/24 10:26:21;;;;;;;2.92;1.20;;;9.50;77.50;;;;;;5100585;27;20092;-63
2020/12/24 10:28:47;;;;;;;4.13;1.55;;;9.50;78.10;;;;;;5090824;28;20028;-57
2020/12/24 10:31:13;;;;;;;2.67;1.10;;;9.60;78.20;;;;;;5107992;27;20118;-58
2020/12/24 10:33:38;;;;;;;4.63;1.20;;;9.60;78.40;;;;;;5111942;27;20067;-59
2020/12/24 10:36:04;;;;;;;6.25;1.20;;;9.50;79.50;;;;;;5101946;28;20060;-58
2020/12/24 10:38:30;;;;;;;5.45;1.27;;;9.30;80.80;;;;;;5117548;27;20031;-58
2020/12/24 10:40:56;;;;;;;4.60;1.10;;;9.30;82.00;;;;;;5112082;27;20098;-59
2020/12/24 10:43:22;;;;;;;4.13;1.52;;;9.30;83.90;;;;;;5110054;27;20106;-59
2020/12/24 10:45:48;;;;;;;5.43;0.90;;;9.10;84.30;;;;;;5100287;27;20059;-59
2020/12/24 10:48:13;;;;;;;6.88;2.20;;;9.10;85.00;;;;;;5108795;27;20815;-59
2020/12/24 10:50:39;;;;;;;4.65;1.27;;;9.20;84.70;;;;;;5111302;27;20372;-59
2020/12/24 10:53:05;;;;;;;0.30;0.30;;;9.10;83.90;;;;;;5106854;27;20090;-59
2020/12/24 10:55:31;;;;;;;3.50;0.70;;;9.10;83.30;;;;;;5106857;27;20046;-60
2020/12/24 10:57:57;;;;;;;1.05;0.65;;;9.10;83.00;;;;;;5103866;27;20167;-59
2020/12/24 11:00:22;;;;;;;0.65;0.50;;;9.10;82.50;;;;;;5103203;27;20038;-59
2020/12/24 11:02:48;;;;;;;1.00;0.55;;;9.10;82.30;;;;;;5112609;27;20028;-59
2020/12/24 11:05:13;;;;;;;1.83;0.52;;;9.00;81.00;;;;;;5113328;27;20031;-59
2020/12/24 11:07:39;;;;;;;0.80;0.50;;;9.00;79.70;;;;;;5114715;27;20527;-58
2020/12/24 11:10:05;;;;;;;1.92;0.95;;;8.90;78.00;;;;;;5114086;27;20035;-60
2020/12/24 11:12:31;;;;;;;0.20;0.20;;;8.90;78.80;;;;;;5112051;27;20061;-59
2020/12/24 11:14:57;;;;;;;0.90;0.20;;;8.80;77.80;;;;;;5099991;28;20027;-59
2020/12/24 11:17:22;;;;;;;0.20;0.20;;;8.70;76.80;;;;;;5110195;28;20035;-60
2020/12/24 11:19:48;;;;;;;0.40;0.30;;;8.70;77.80;;;;;;5113105;28;20104;-59
2020/12/24 11:22:14;;;;;;;0.08;0.00;;;8.70;77.20;;;;;;5120179;28;20066;-59
2020/12/24 11:26:27;;;;;;;0.35;0.20;;;8.70;76.50;;;;;;5076300;27;20327;-60
2020/12/24 11:28:53;;;;;;;2.05;0.30;;;8.60;77.00;;;;;;5064559;28;20412;-60
2020/12/24 11:31:25;;;;;;;0.47;0.32;;;8.40;78.00;;;;;;5056671;28;20123;-60
2020/12/24 11:33:52;;;;;;;0.77;0.40;;;8.40;78.40;;;;;;5056543;28;20880;-60
2020/12/24 11:36:18;;;;;;;2.95;1.20;;;8.50;78.60;;;;;;5055016;28;20064;-60
2020/12/24 11:38:44;;;;;;;1.63;0.75;;;8.50;78.20;;;;;;5055568;28;20048;-60
2020/12/24 11:41:14;;;;;;;2.05;0.60;;;8.50;78.00;;;;;;5060996;28;20766;-61
2020/12/24 11:43:41;;;;;;;3.47;1.40;;;8.50;78.10;;;;;;5055463;28;20028;-62
2020/12/24 11:46:11;;;;;;;1.38;0.88;;;8.40;79.30;;;;;;5055879;28;20028;-65
2020/12/24 11:48:37;;;;;;;0.57;0.30;;;8.30;79.40;;;;;;5054884;28;20101;-61
2020/12/24 11:51:11;;;;;;;0.73;0.55;;;8.20;79.80;;;;;;5037322;28;20805;-65
2020/12/24 11:53:38;;;;;;;2.90;1.00;;;8.20;80.20;;;;;;5048558;28;20021;-62
2020/12/24 11:56:04;;;;;;;2.03;0.68;;;8.20;80.50;;;;;;5055089;28;20032;-62
2020/12/24 11:58:30;;;;;;;2.67;0.60;;;8.10;81.80;;;;;;5053831;28;20419;-63
2020/12/24 12:00:56;;;;;;;1.50;0.60;;;7.90;82.50;;;;;;5042327;28;20037;-61
2020/12/24 12:03:22;;;;;;;1.38;0.77;;;7.80;82.70;;;;;;5035047;28;20417;-61
2020/12/24 12:05:48;;;;;;;3.72;1.00;;;7.60;83.80;;;;;;5034661;28;20809;-61
2020/12/24 12:08:13;;;;;;;2.10;1.00;;;7.50;85.50;;;;;;5035045;28;20175;-61
2020/12/24 12:10:40;;;;;;;3.67;1.10;;;7.30;86.80;;;;;;5034150;28;20041;-62
2020/12/24 12:13:05;;;;;;;2.55;1.13;;;7.20;87.70;;;;;;5033628;28;20025;-62
2020/12/24 12:15:31;;;;;;;3.30;1.67;;;7.10;88.20;;;;;;5034339;28;20040;-62
2020/12/24 12:17:57;;;;;;;1.10;0.90;;;7.00;88.90;;;;;;5034641;28;20136;-62
2020/12/24 12:20:23;;;;;;;0.90;0.68;;;7.00;89.40;;;;;;5038088;28;20819;-60
2020/12/24 12:22:49;;;;;;;0.55;0.52;;;7.00;90.00;;;;;;5034782;28;20045;-62
2020/12/24 12:25:15;;;;;;;0.60;0.55;;;7.00;90.10;;;;;;5032020;28;20087;-61
2020/12/24 12:27:44;;;;;;;0.63;0.60;;;7.10;90.00;;;;;;5032190;28;20069;-61
2020/12/24 12:30:10;;;;;;;0.35;0.35;;;7.10;89.80;;;;;;5035658;28;20566;-62
2020/12/24 12:32:35;;;;;;;0.25;0.25;;;7.20;89.00;;;;;;5034211;28;20029;-61
2020/12/24 12:35:01;;;;;;;0.20;0.20;;;7.30;88.60;;;;;;5035037;28;20037;-62
2020/12/24 12:37:27;;;;;;;0.30;0.30;;;7.30;88.20;;;;;;5026112;28;20308;-61
2020/12/24 12:39:52;;;;;;;1.50;0.10;;;7.30;88.60;;;;;;5015771;28;20072;-61
2020/12/24 12:42:18;;;;;;;0.20;0.10;;;7.20;87.30;;;;;;5021532;28;20047;-61
2020/12/24 12:44:44;;;;;;;1.92;0.10;;;7.10;87.60;;;;;;5022139;28;20481;-59
2020/12/24 12:47:10;;;;;;;0.20;0.15;;;7.00;87.30;;;;;;5020000;28;20067;-61
2020/12/24 12:49:36;;;;;;;2.15;1.80;;;6.90;87.10;;;;;;5021169;28;20071;-61
2020/12/24 12:52:05;;;;;;;5.28;1.60;;;6.90;87.50;;;;;;5022585;28;20032;-60
2020/12/24 12:54:31;;;;;;;0.10;0.10;;;6.80;87.50;;;;;;5021423;28;20488;-63
2020/12/24 12:56:57;;;;;;;0.32;0.30;;;6.80;87.60;;;;;;5020961;28;20030;-58
2020/12/24 12:59:23;;;;;;;0.38;0.32;;;6.70;87.30;;;;;;5020844;28;20037;-59